Time;durP1;ratioP1;P1;durP2;ratioP2;P2;SDS_P1;SDS_P2;PMS_P1;PMS_P2;Temp;Humidity;BMP_temperature;BMP_pressure;BME280_temperature;BME280_humidity;BME280_pressure;Samples;Min_cycle;Max_cycle;Signal;HPM_P1;HPM_P2
2021/07/21 00:01:11;;;;;;;10.03;6.40;;;;;;;15.09;85.29;96882.17;128057;1095;30194;-95
2021/07/21 00:03:43;;;;;;;11.43;6.95;;;;;;;15.08;85.28;96880.59;127817;1096;39176;-95
2021/07/21 00:06:14;;;;;;;12.05;7.03;;;;;;;15.06;85.29;96882.75;127880;1095;33892;-95
2021/07/21 00:08:46;;;;;;;12.08;7.25;;;;;;;15.04;85.34;96874.25;127988;1096;36713;-95
2021/07/21 00:14:14;;;;;;;10.10;7.35;;;;;;;14.98;86.55;96878.14;127947;1096;38126;-96
2021/07/21 00:16:51;;;;;;;13.30;8.23;;;;;;;14.93;86.41;96872.91;128079;1095;29911;-95
2021/07/21 00:22:12;;;;;;;12.78;8.08;;;;;;;14.84;87.15;96876.27;128006;1095;36570;-96
2021/07/21 00:24:45;;;;;;;11.17;8.13;;;;;;;14.80;87.26;96869.96;127879;1095;38015;-96
2021/07/21 00:27:17;;;;;;;11.28;7.55;;;;;;;14.78;87.84;96871.36;127948;1096;33720;-96
2021/07/21 00:29:48;;;;;;;13.78;8.40;;;;;;;14.74;87.84;96871.14;128099;1096;34357;-95
2021/07/21 00:32:20;;;;;;;12.57;8.43;;;;;;;14.73;87.89;96869.56;128207;1096;32968;-96
2021/07/21 00:34:52;;;;;;;11.38;7.20;;;;;;;14.75;87.82;96875.38;128097;1095;38689;-96
2021/07/21 00:37:23;;;;;;;11.35;7.73;;;;;;;14.76;87.61;96868.95;127951;1095;72853;-96
2021/07/21 00:39:55;;;;;;;12.83;7.98;;;;;;;14.78;87.67;96876.69;127948;1095;41167;-95
2021/07/21 00:42:27;;;;;;;11.58;7.13;;;;;;;14.80;87.34;96879.84;128168;1096;33235;-96
2021/07/21 00:44:59;;;;;;;13.20;7.60;;;;;;;14.81;87.45;96879.55;127997;1096;33901;-95
2021/07/21 00:47:30;;;;;;;9.70;6.58;;;;;;;14.83;87.34;96879.25;128079;1095;34947;-96
2021/07/21 00:50:02;;;;;;;12.50;6.73;;;;;;;14.87;86.97;96879.43;127936;1096;36056;-96
2021/07/21 00:52:34;;;;;;;11.95;6.45;;;;;;;14.89;87.10;96877.25;127895;1096;71324;-95
2021/07/21 00:55:07;;;;;;;12.53;6.60;;;;;;;14.89;86.86;96887.93;128193;1096;38165;-96
2021/07/21 00:57:40;;;;;;;8.27;5.80;;;;;;;14.90;86.90;96878.83;128028;1096;55406;-95
2021/07/21 01:00:15;;;;;;;10.65;6.03;;;;;;;14.93;86.73;96889.72;127846;1097;37463;-96
2021/07/21 01:02:49;;;;;;;10.33;6.35;;;;;;;14.95;86.59;96887.54;127927;1096;49001;-95
2021/07/21 01:05:27;;;;;;;9.58;6.23;;;;;;;14.96;86.53;96891.78;127894;1095;29049;-95
2021/07/21 01:07:59;;;;;;;11.33;5.75;;;;;;;14.97;86.37;96880.02;127954;1096;36856;-95
2021/07/21 01:10:31;;;;;;;7.65;6.05;;;;;;;15.00;86.65;96889.30;127912;1096;28884;-95
2021/07/21 01:13:08;;;;;;;10.13;5.58;;;;;;;14.99;86.15;96893.06;127959;1096;34277;-95
2021/07/21 01:15:50;;;;;;;10.13;5.78;;;;;;;14.98;85.95;96883.48;127890;1095;37226;-96
2021/07/21 01:18:27;;;;;;;10.20;6.43;;;;;;;14.97;85.98;96880.02;127982;1097;33302;-95
2021/07/21 01:21:20;;;;;;;10.85;7.28;;;;;;;14.96;86.14;96883.78;128008;1096;43675;-96
2021/07/21 01:24:19;;;;;;;10.78;6.80;;;;;;;14.94;86.04;96882.50;127964;1096;69239;-96
2021/07/21 01:27:08;;;;;;;12.00;7.08;;;;;;;14.92;85.87;96876.64;128019;1096;36097;-95
2021/07/21 01:29:41;;;;;;;9.23;6.33;;;;;;;14.92;85.50;96879.31;127946;1096;38474;-96
2021/07/21 01:32:14;;;;;;;11.93;6.70;;;;;;;14.90;85.36;96878.83;128015;1096;45495;-96
2021/07/21 01:34:49;;;;;;;10.00;6.53;;;;;;;14.89;85.27;96871.91;128051;1096;33855;-95
2021/07/21 01:37:22;;;;;;;9.07;6.17;;;;;;;14.88;85.33;96871.13;127930;1097;37937;-96
2021/07/21 01:40:01;;;;;;;11.03;6.20;;;;;;;14.88;85.00;96873.00;128051;1096;35156;-94
2021/07/21 01:42:34;;;;;;;11.15;6.20;;;;;;;14.87;84.89;96876.77;128361;1096;36523;-95
2021/07/21 01:45:08;;;;;;;11.20;6.38;;;;;;;14.89;84.63;96877.25;128137;1095;39377;-95
2021/07/21 01:47:43;;;;;;;12.25;6.45;;;;;;;14.87;84.73;96879.43;128153;1096;38782;-95
2021/07/21 01:50:16;;;;;;;11.18;6.08;;;;;;;14.87;84.28;96882.89;128270;1096;36618;-96
2021/07/21 01:52:49;;;;;;;11.75;6.43;;;;;;;14.90;84.04;96876.16;128256;1097;36592;-95
2021/07/21 01:55:22;;;;;;;10.18;5.80;;;;;;;14.91;83.66;96880.41;128397;1096;45181;-95
2021/07/21 01:57:55;;;;;;;10.78;5.90;;;;;;;14.88;83.71;96867.66;128134;1095;46435;-96
2021/07/21 02:00:27;;;;;;;12.03;6.70;;;;;;;14.87;83.62;96874.88;127983;1097;40853;-96
2021/07/21 02:03:00;;;;;;;10.80;6.63;;;;;;;14.83;83.42;96872.03;128119;1097;39213;-96
2021/07/21 02:05:33;;;;;;;9.75;6.40;;;;;;;14.84;82.98;96870.94;127989;1096;39287;-95
2021/07/21 02:08:06;;;;;;;9.53;6.48;;;;;;;14.84;83.26;96872.81;128012;1097;33997;-96
2021/07/21 02:10:37;;;;;;;9.75;6.10;;;;;;;14.82;83.15;96873.12;128008;1095;46016;-94
2021/07/21 02:13:12;;;;;;;10.83;6.30;;;;;;;14.80;82.87;96877.97;127991;1096;44764;-96
2021/07/21 02:15:47;;;;;;;9.85;6.00;;;;;;;14.79;82.60;96873.72;127956;1096;37723;-96
2021/07/21 02:18:20;;;;;;;9.00;6.25;;;;;;;14.79;82.69;96881.73;128076;1095;33421;-95
2021/07/21 02:20:54;;;;;;;12.33;6.27;;;;;;;14.79;82.50;96883.61;128242;1095;33310;-96
2021/07/21 02:23:29;;;;;;;10.45;6.13;;;;;;;14.80;82.64;96896.66;128147;1096;56305;-93
2021/07/21 02:26:02;;;;;;;9.60;5.83;;;;;;;14.83;82.37;96900.60;128042;1096;37270;-95
2021/07/21 02:28:34;;;;;;;10.85;6.30;;;;;;;14.87;82.62;96898.12;127868;1096;35702;-95
2021/07/21 02:31:15;;;;;;;10.90;5.73;;;;;;;14.88;82.66;96892.48;127966;1096;35843;-95
2021/07/21 02:33:53;;;;;;;9.68;5.65;;;;;;;14.88;82.69;96900.48;127882;1097;40033;-95
2021/07/21 02:36:25;;;;;;;11.60;6.13;;;;;;;14.90;82.76;96894.84;127858;1096;34244;-95
2021/07/21 02:38:57;;;;;;;9.98;5.48;;;;;;;14.91;82.95;96896.42;127855;1097;33710;-94
2021/07/21 02:41:29;;;;;;;7.68;5.60;;;;;;;14.90;82.86;96892.97;127882;1097;42057;-95
2021/07/21 02:44:01;;;;;;;11.13;6.05;;;;;;;14.88;83.12;96895.14;127984;1095;63960;-95
2021/07/21 02:46:32;;;;;;;10.33;6.00;;;;;;;14.87;83.19;96901.58;128097;1096;36494;-96
2021/07/21 02:49:04;;;;;;;11.55;5.78;;;;;;;14.88;82.99;96899.70;127785;1095;33285;-95
2021/07/21 02:51:42;;;;;;;10.05;6.05;;;;;;;14.86;83.09;96902.66;127883;1095;35471;-95
2021/07/21 02:54:27;;;;;;;10.70;6.90;;;;;;;14.84;83.16;96902.17;127874;1096;37301;-94
2021/07/21 02:57:09;;;;;;;10.58;5.43;;;;;;;14.87;83.37;96914.13;128021;1096;36018;-95
2021/07/21 02:59:47;;;;;;;9.30;5.53;;;;;;;14.87;83.30;96916.80;127824;1095;35533;-95
2021/07/21 03:02:23;;;;;;;10.18;5.60;;;;;;;14.89;83.39;96914.63;127935;1096;37557;-95
2021/07/21 03:04:58;;;;;;;12.60;5.55;;;;;;;14.91;83.54;96918.57;127799;1095;39395;-95
2021/07/21 03:07:31;;;;;;;10.65;6.28;;;;;;;14.93;83.45;96928.98;127864;1095;33791;-95
2021/07/21 03:10:03;;;;;;;10.80;6.33;;;;;;;14.93;83.53;96924.42;127756;1096;37221;-94
2021/07/21 03:12:40;;;;;;;11.45;5.90;;;;;;;14.96;83.53;96931.05;127790;1095;42827;-95
2021/07/21 03:15:15;;;;;;;9.43;5.68;;;;;;;14.95;83.48;96926.80;127821;1096;35334;-95
2021/07/21 03:17:49;;;;;;;9.23;5.33;;;;;;;14.91;83.30;96934.59;127791;1096;33565;-95
2021/07/21 03:20:21;;;;;;;10.55;5.78;;;;;;;14.83;83.52;96933.42;127972;1096;36638;-96
2021/07/21 03:22:58;;;;;;;8.75;5.63;;;;;;;14.79;83.79;96929.77;127858;1096;33149;-95
2021/07/21 03:25:31;;;;;;;9.20;5.80;;;;;;;14.70;84.09;96934.20;127810;1095;40756;-95
2021/07/21 03:28:05;;;;;;;12.50;6.00;;;;;;;14.67;84.26;96942.81;127961;1095;74475;-95
2021/07/21 03:30:37;;;;;;;10.00;5.78;;;;;;;14.67;84.40;96950.81;127865;1095;33595;-95
2021/07/21 03:33:11;;;;;;;8.28;5.78;;;;;;;14.66;84.43;96943.11;127887;1096;30698;-95
2021/07/21 03:35:44;;;;;;;7.38;5.18;;;;;;;14.67;84.22;96940.14;127881;1096;31299;-95
2021/07/21 03:38:18;;;;;;;8.93;5.83;;;;;;;14.69;84.22;96945.97;127893;1095;58873;-96
2021/07/21 03:40:52;;;;;;;9.25;5.15;;;;;;;14.74;84.29;96937.86;127951;1096;49435;-96
2021/07/21 03:43:25;;;;;;;11.65;6.83;;;;;;;14.80;84.10;96939.36;127809;1096;34956;-94
2021/07/21 03:46:01;;;;;;;8.47;5.87;;;;;;;14.85;84.14;96939.25;127875;1096;29659;-95
2021/07/21 03:48:33;;;;;;;12.30;6.80;;;;;;;14.87;84.22;96938.16;127761;1096;60528;-94
2021/07/21 03:51:04;;;;;;;8.80;5.73;;;;;;;14.87;84.02;96944.28;127893;1096;36854;-95
2021/07/21 03:53:37;;;;;;;10.85;5.78;;;;;;;14.90;83.82;96942.89;127792;1095;32691;-95
2021/07/21 03:56:10;;;;;;;11.23;6.48;;;;;;;14.92;83.75;96944.20;127834;1096;38751;-95
2021/07/21 03:58:42;;;;;;;9.80;5.95;;;;;;;14.94;83.36;96946.58;127994;1095;51629;-95
2021/07/21 04:01:18;;;;;;;10.23;6.30;;;;;;;14.96;83.41;96949.73;127838;1096;38676;-95
2021/07/21 04:03:51;;;;;;;12.35;6.85;;;;;;;14.93;83.62;96953.80;127936;1096;32972;-95
2021/07/21 04:06:24;;;;;;;11.90;7.27;;;;;;;14.87;83.63;96954.96;127883;1095;39256;-94
2021/07/21 04:09:04;;;;;;;12.78;6.68;;;;;;;14.85;83.59;96957.93;127922;1096;44311;-94
2021/07/21 04:11:38;;;;;;;12.35;6.48;;;;;;;14.84;83.84;96964.36;127889;1096;32356;-94
2021/07/21 04:14:14;;;;;;;11.13;6.38;;;;;;;14.89;84.01;96958.13;127867;1096;35187;-95
2021/07/21 04:16:50;;;;;;;11.90;6.83;;;;;;;14.92;84.10;96965.56;127954;1095;33495;-94
2021/07/21 04:19:23;;;;;;;10.73;5.43;;;;;;;14.94;83.59;96965.26;127883;1097;36540;-95
2021/07/21 04:21:56;;;;;;;11.05;5.10;;;;;;;14.95;83.61;96964.17;127925;1095;34003;-95
2021/07/21 04:24:28;;;;;;;8.23;5.25;;;;;;;14.98;83.47;96968.91;127796;1095;31668;-95
2021/07/21 04:27:02;;;;;;;9.08;5.30;;;;;;;15.01;83.28;96965.64;128022;1096;37311;-95
2021/07/21 04:29:35;;;;;;;7.50;4.73;;;;;;;15.03;82.92;96966.92;127787;1097;37933;-95
2021/07/21 04:32:08;;;;;;;9.53;5.20;;;;;;;15.04;83.06;96970.38;127984;1096;30695;-95
2021/07/21 04:34:40;;;;;;;6.60;4.70;;;;;;;15.07;82.96;96972.48;127884;1096;35236;-95
2021/07/21 04:37:13;;;;;;;8.83;5.98;;;;;;;15.09;82.95;96983.65;127777;1095;28768;-95
2021/07/21 04:39:46;;;;;;;10.98;6.08;;;;;;;15.10;83.04;96985.23;127788;1097;33713;-95
2021/07/21 04:42:18;;;;;;;10.65;5.98;;;;;;;15.11;83.07;96982.26;128056;1096;31569;-96
2021/07/21 04:44:49;;;;;;;10.68;6.43;;;;;;;15.15;83.07;96995.80;127855;1095;29195;-94
2021/07/21 04:47:22;;;;;;;10.43;6.33;;;;;;;15.15;82.93;96995.80;127937;1096;38690;-95
2021/07/21 04:49:54;;;;;;;10.53;6.70;;;;;;;15.12;82.90;96989.17;127845;1096;35975;-94
2021/07/21 04:52:27;;;;;;;10.70;6.53;;;;;;;15.11;83.05;96994.82;128404;1096;42359;-96
2021/07/21 04:54:58;;;;;;;10.30;6.78;;;;;;;15.06;83.22;96997.57;129174;1096;32907;-95
2021/07/21 04:57:29;;;;;;;10.75;6.65;;;;;;;15.01;83.15;96998.47;128877;1095;36343;-95
2021/07/21 05:00:01;;;;;;;9.48;6.83;;;;;;;15.00;83.35;97001.44;127707;1096;56327;-94
2021/07/21 05:02:33;;;;;;;10.23;6.20;;;;;;;14.97;83.55;97002.03;127921;1096;40029;-96
2021/07/21 05:05:06;;;;;;;10.23;6.65;;;;;;;14.94;83.83;97000.76;127879;1096;78672;-95
2021/07/21 05:07:37;;;;;;;12.23;7.33;;;;;;;14.94;83.76;96999.97;127907;1096;35443;-94
2021/07/21 05:10:10;;;;;;;10.48;6.05;;;;;;;14.90;83.76;97002.41;127987;1096;33613;-95
2021/07/21 05:12:44;;;;;;;10.50;6.93;;;;;;;14.87;83.45;97016.36;127763;1096;33404;-94
2021/07/21 05:15:16;;;;;;;11.18;6.30;;;;;;;14.84;83.81;97015.08;127844;1096;41646;-94
2021/07/21 05:17:48;;;;;;;10.28;6.33;;;;;;;14.84;83.45;97015.08;127800;1096;38318;-94
2021/07/21 05:20:19;;;;;;;8.65;5.63;;;;;;;14.88;83.53;97017.94;127875;1097;35551;-95
2021/07/21 05:22:51;;;;;;;9.03;6.03;;;;;;;14.88;83.70;97017.16;127936;1096;30932;-95
2021/07/21 05:25:23;;;;;;;9.78;6.18;;;;;;;14.88;83.58;97019.82;127848;1096;34519;-94
2021/07/21 05:27:54;;;;;;;8.68;5.78;;;;;;;14.89;83.46;97016.06;127870;1096;35460;-93
2021/07/21 05:30:26;;;;;;;8.65;5.53;;;;;;;14.93;83.39;97017.08;127917;1096;38293;-95
2021/07/21 05:32:58;;;;;;;11.15;6.20;;;;;;;14.93;83.30;97025.08;127834;1096;34296;-94
2021/07/21 05:35:30;;;;;;;8.90;6.03;;;;;;;14.88;83.07;97014.48;127849;1097;31566;-94
2021/07/21 05:38:02;;;;;;;11.07;6.37;;;;;;;14.86;83.48;97025.45;127819;1096;37320;-95
2021/07/21 05:40:34;;;;;;;8.53;6.03;;;;;;;14.82;83.31;97025.27;127912;1096;32150;-93
2021/07/21 05:43:06;;;;;;;10.50;5.88;;;;;;;14.78;83.49;97021.61;127755;1095;39051;-94
2021/07/21 05:45:38;;;;;;;9.30;6.15;;;;;;;14.76;83.52;97021.09;127765;1096;29981;-94
2021/07/21 05:48:09;;;;;;;7.85;5.48;;;;;;;14.79;83.52;97028.53;127798;1096;33484;-94
2021/07/21 05:50:41;;;;;;;9.53;6.00;;;;;;;14.82;83.54;97038.61;127967;1096;35492;-91
2021/07/21 05:53:12;;;;;;;10.58;6.08;;;;;;;14.89;83.55;97032.08;128003;1095;30186;-94
2021/07/21 05:55:44;;;;;;;9.58;5.73;;;;;;;14.90;83.36;97036.33;127837;1097;26281;-94
2021/07/21 05:58:15;;;;;;;11.15;6.05;;;;;;;14.92;83.30;97039.48;127842;1097;27166;-94
2021/07/21 06:00:47;;;;;;;9.48;5.65;;;;;;;14.93;83.26;97039.22;127871;1095;25806;-93
2021/07/21 06:03:20;;;;;;;8.60;5.60;;;;;;;14.96;83.19;97043.17;128011;1096;41319;-95
2021/07/21 06:05:52;;;;;;;10.93;6.03;;;;;;;14.95;83.18;97044.27;127760;1096;29818;-94
2021/07/21 06:08:24;;;;;;;7.93;5.18;;;;;;;14.92;83.20;97042.98;127980;1095;40497;-96
2021/07/21 06:10:55;;;;;;;8.93;5.58;;;;;;;14.89;82.55;97048.88;127771;1096;30057;-95
2021/07/21 06:13:27;;;;;;;9.90;6.10;;;;;;;14.88;82.50;97046.52;127781;1096;36630;-95
2021/07/21 06:16:05;;;;;;;9.80;5.55;;;;;;;14.86;82.60;97049.48;127778;1096;33739;-95
2021/07/21 06:18:38;;;;;;;8.23;5.50;;;;;;;14.85;82.46;97043.35;127854;1096;35910;-93
2021/07/21 06:21:10;;;;;;;7.60;5.35;;;;;;;14.83;82.66;97056.20;127738;1096;35011;-95
2021/07/21 06:23:41;;;;;;;7.45;5.23;;;;;;;14.84;82.68;97048.98;127722;1095;32413;-95
2021/07/21 06:26:13;;;;;;;7.95;5.60;;;;;;;14.79;82.46;97041.88;127794;1096;36617;-94
2021/07/21 06:28:45;;;;;;;9.20;6.33;;;;;;;14.80;82.71;97051.46;127759;1096;33577;-95
2021/07/21 06:31:19;;;;;;;9.88;5.93;;;;;;;14.84;82.95;97057.78;127820;1095;32655;-94
2021/07/21 06:33:50;;;;;;;9.33;5.73;;;;;;;14.87;82.60;97067.08;127902;1095;36828;-95
2021/07/21 06:36:22;;;;;;;9.85;5.88;;;;;;;14.89;82.94;97061.44;127959;1095;31866;-96
2021/07/21 06:38:54;;;;;;;11.05;6.90;;;;;;;14.89;83.10;97061.44;127876;1096;34510;-93
2021/07/21 06:41:25;;;;;;;7.33;5.88;;;;;;;14.93;83.64;97065.13;128051;1095;34324;-94
2021/07/21 06:44:00;;;;;;;12.10;6.35;;;;;;;14.94;83.47;97069.38;127837;1095;36544;-94
2021/07/21 06:46:32;;;;;;;12.27;7.13;;;;;;;14.97;83.72;97066.91;127848;1096;33295;-95
2021/07/21 06:49:04;;;;;;;10.15;6.83;;;;;;;14.98;83.76;97071.16;127864;1096;34914;-95
2021/07/21 06:51:35;;;;;;;11.73;6.60;;;;;;;14.98;83.74;97075.70;128036;1096;29948;-95
2021/07/21 06:54:07;;;;;;;11.85;6.33;;;;;;;14.99;83.82;97061.27;127829;1095;32416;-95
2021/07/21 06:56:39;;;;;;;10.00;6.53;;;;;;;14.99;84.02;97063.94;127873;1095;31216;-95
2021/07/21 06:59:11;;;;;;;10.60;6.63;;;;;;;14.99;83.99;97075.41;127823;1096;28521;-95
2021/07/21 07:01:42;;;;;;;10.28;6.13;;;;;;;14.98;83.96;97071.16;127888;1096;33289;-95
2021/07/21 07:04:14;;;;;;;12.08;6.63;;;;;;;14.96;84.36;97073.33;128011;1094;30090;-95
2021/07/21 07:06:45;;;;;;;12.93;6.80;;;;;;;14.97;84.69;97071.45;128133;1096;32532;-93
2021/07/21 07:09:17;;;;;;;12.60;7.33;;;;;;;14.99;84.58;97085.30;127930;1096;31687;-94
2021/07/21 07:11:50;;;;;;;8.93;6.43;;;;;;;15.03;84.82;97083.61;127901;1095;45250;-94
2021/07/21 07:14:21;;;;;;;9.70;6.05;;;;;;;15.06;84.86;97080.34;127838;1096;35032;-95
2021/07/21 07:16:53;;;;;;;9.57;5.93;;;;;;;15.07;84.76;97081.96;127878;1096;81364;-95
2021/07/21 07:19:24;;;;;;;9.43;6.33;;;;;;;15.12;84.67;97079.19;127819;1095;34522;-93
2021/07/21 07:21:59;;;;;;;10.50;6.43;;;;;;;15.18;84.92;97083.33;127789;1096;33267;-95
2021/07/21 07:24:33;;;;;;;10.78;6.98;;;;;;;15.24;84.93;97087.51;127787;1097;35567;-95
2021/07/21 07:27:05;;;;;;;8.95;5.80;;;;;;;15.31;84.71;97087.89;127753;1096;37270;-94
2021/07/21 07:29:37;;;;;;;8.15;5.55;;;;;;;15.35;84.56;97086.23;127764;1097;32968;-93
2021/07/21 07:32:09;;;;;;;9.78;5.70;;;;;;;15.41;84.40;97081.57;127805;1096;36749;-94
2021/07/21 07:34:41;;;;;;;9.20;5.88;;;;;;;15.49;84.06;97082.77;127742;1096;36924;-96
2021/07/21 07:37:13;;;;;;;7.68;5.55;;;;;;;15.55;83.72;97082.36;127765;1097;36640;-95
2021/07/21 07:39:45;;;;;;;8.50;5.48;;;;;;;15.64;83.14;97082.48;127767;1096;32161;-94
2021/07/21 07:42:16;;;;;;;8.70;5.58;;;;;;;15.73;83.33;97078.00;127840;1096;39700;-95
2021/07/21 07:44:48;;;;;;;8.73;5.50;;;;;;;15.90;83.36;97094.20;127866;1096;31193;-94
2021/07/21 07:47:20;;;;;;;11.33;6.33;;;;;;;16.13;83.93;97083.56;127790;1096;35035;-95
2021/07/21 07:49:54;;;;;;;9.48;5.53;;;;;;;16.41;83.30;97092.29;127800;1095;36091;-95
2021/07/21 07:52:25;;;;;;;9.58;5.75;;;;;;;16.58;82.12;97100.44;127713;1095;56789;-93
2021/07/21 07:54:57;;;;;;;9.63;5.43;;;;;;;16.99;82.06;97096.78;127732;1096;27581;-94
2021/07/21 07:57:28;;;;;;;9.07;5.03;;;;;;;17.41;81.67;97092.72;127779;1096;37543;-95
2021/07/21 08:00:00;;;;;;;8.10;4.68;;;;;;;18.13;80.94;97094.16;127687;1096;31836;-94
2021/07/21 08:02:32;;;;;;;8.10;5.20;;;;;;;18.59;78.90;97093.55;127699;1096;51857;-95
2021/07/21 08:05:04;;;;;;;6.98;4.45;;;;;;;18.60;76.88;97089.75;127735;1096;33235;-94
2021/07/21 08:07:36;;;;;;;7.55;4.85;;;;;;;18.67;76.33;97092.76;127701;1096;31335;-94
2021/07/21 08:10:13;;;;;;;10.00;4.95;;;;;;;18.68;74.83;97102.39;127661;1097;32737;-95
2021/07/21 08:12:46;;;;;;;8.75;4.93;;;;;;;18.42;74.39;97086.27;127663;1096;38340;-94
2021/07/21 08:15:18;;;;;;;9.93;5.25;;;;;;;18.49;74.53;97088.49;127696;1096;34339;-94
2021/07/21 08:17:49;;;;;;;11.20;5.65;;;;;;;18.54;74.51;97096.38;127759;1096;25152;-95
2021/07/21 08:20:21;;;;;;;7.13;5.30;;;;;;;18.52;74.72;97087.85;127789;1096;22790;-94
2021/07/21 08:22:52;;;;;;;6.85;4.50;;;;;;;18.64;75.25;97101.45;127708;1096;30972;-95
2021/07/21 08:25:24;;;;;;;7.95;5.25;;;;;;;18.73;74.43;97099.56;127769;1096;30052;-92
2021/07/21 08:27:56;;;;;;;8.05;4.68;;;;;;;18.96;74.23;97095.55;127737;1096;27749;-95
2021/07/21 08:30:28;;;;;;;7.30;4.70;;;;;;;19.86;74.77;97100.74;127723;1095;33639;-94
2021/07/21 08:33:00;;;;;;;7.35;4.20;;;;;;;20.45;72.71;97097.18;127623;1096;31959;-94
2021/07/21 08:35:33;;;;;;;7.60;4.03;;;;;;;20.90;71.59;97091.05;127727;1096;27569;-94
2021/07/21 08:38:07;;;;;;;6.70;3.78;;;;;;;21.66;72.57;97100.48;127752;1096;24732;-95
2021/07/21 08:40:41;;;;;;;5.30;3.45;;;;;;;23.17;67.21;97096.36;127630;1097;30244;-95
2021/07/21 08:43:13;;;;;;;7.63;3.70;;;;;;;24.63;67.38;97088.84;127749;1096;34179;-94
2021/07/21 08:45:45;;;;;;;5.23;3.48;;;;;;;25.60;64.35;97097.57;127695;1095;23367;-95
2021/07/21 08:48:16;;;;;;;8.43;3.70;;;;;;;25.73;59.25;97098.97;127651;1097;25847;-95
2021/07/21 08:50:49;;;;;;;7.53;3.68;;;;;;;24.93;60.78;97097.19;127654;1095;23548;-94
2021/07/21 08:53:22;;;;;;;5.10;3.58;;;;;;;24.77;60.11;97097.25;127737;1096;23111;-94
2021/07/21 08:55:54;;;;;;;6.23;3.65;;;;;;;24.74;60.28;97087.13;127710;1095;23309;-94
2021/07/21 08:58:26;;;;;;;6.70;3.80;;;;;;;24.53;59.51;97098.36;127609;1095;25941;-93
2021/07/21 09:00:58;;;;;;;6.45;3.50;;;;;;;24.34;59.65;97099.12;127631;1097;23468;-91
2021/07/21 09:03:31;;;;;;;5.25;3.70;;;;;;;23.78;59.81;97098.63;127584;1096;25796;-93
2021/07/21 09:06:03;;;;;;;6.83;4.03;;;;;;;23.29;58.23;97097.06;127576;1096;23657;-94
2021/07/21 09:08:37;;;;;;;8.13;4.48;;;;;;;22.89;59.66;97085.59;127569;1096;25022;-93
2021/07/21 09:11:11;;;;;;;5.90;3.95;;;;;;;22.51;61.31;97087.63;127621;1097;26251;-94
2021/07/21 09:13:42;;;;;;;7.93;3.53;;;;;;;22.15;61.38;97091.25;127595;1097;24241;-93
2021/07/21 09:16:16;;;;;;;7.18;3.90;;;;;;;21.83;60.47;97089.48;127610;1095;22810;-94
2021/07/21 09:18:53;;;;;;;5.85;3.85;;;;;;;21.90;61.75;97085.07;127586;1096;24474;-93
2021/07/21 09:21:27;;;;;;;6.30;3.77;;;;;;;21.88;61.50;97098.13;127644;1096;31156;-92
2021/07/21 09:24:00;;;;;;;7.00;3.65;;;;;;;21.91;60.99;97089.34;127634;1096;32128;-94
2021/07/21 09:26:42;;;;;;;5.53;3.78;;;;;;;21.85;60.27;97090.71;127653;1097;29089;-93
2021/07/21 09:29:17;;;;;;;6.13;3.48;;;;;;;21.85;61.61;97093.41;127675;1096;22856;-95
2021/07/21 09:31:54;;;;;;;5.58;3.40;;;;;;;22.14;62.58;97086.19;127731;1096;25308;-94
2021/07/21 09:34:26;;;;;;;8.25;3.78;;;;;;;22.30;62.81;97091.66;127676;1097;24993;-92
2021/07/21 09:37:12;;;;;;;7.08;3.98;;;;;;;22.14;60.03;97095.08;127714;1096;23115;-93
2021/07/21 09:39:50;;;;;;;7.13;3.70;;;;;;;22.12;59.71;97099.25;127637;1096;22835;-95
2021/07/21 09:42:30;;;;;;;5.78;3.35;;;;;;;22.21;60.48;97097.97;127697;1095;35564;-95
2021/07/21 09:45:07;;;;;;;;;;;;;;;22.29;59.40;97098.20;127679;1096;27498;-93
2021/07/21 09:47:41;;;;;;;6.53;3.28;;;;;;;22.18;58.82;97089.77;127609;1096;23114;-92
2021/07/21 09:50:20;;;;;;;5.90;3.35;;;;;;;22.06;58.88;97092.50;127631;1097;23335;-91
2021/07/21 09:52:54;;;;;;;6.30;3.93;;;;;;;21.82;57.77;97096.02;127741;1096;24169;-93
2021/07/21 09:55:29;;;;;;;6.93;3.78;;;;;;;21.75;58.83;97103.88;127838;1095;23317;-90
2021/07/21 09:58:07;;;;;;;6.55;4.35;;;;;;;21.55;59.20;97100.17;127395;1096;27433;-92
2021/07/21 10:00:41;;;;;;;7.08;3.68;;;;;;;21.61;58.65;97098.81;127538;1096;24870;-94
2021/07/21 10:03:16;;;;;;;7.10;3.60;;;;;;;21.78;59.69;97095.88;127494;1095;22819;-94
2021/07/21 10:06:00;;;;;;;5.13;3.63;;;;;;;21.87;59.09;97098.47;127567;1096;22997;-92
2021/07/21 10:08:38;;;;;;;6.35;4.20;;;;;;;21.61;58.57;97093.42;127629;1095;24263;-93
2021/07/21 10:11:28;;;;;;;7.83;3.70;;;;;;;21.58;60.27;97092.19;127620;1096;24555;-93
2021/07/21 10:14:15;;;;;;;5.13;3.40;;;;;;;21.68;59.95;97090.14;127607;1096;25481;-93
2021/07/21 10:16:53;;;;;;;6.13;3.20;;;;;;;21.83;59.49;97090.27;128339;1096;24464;-89
2021/07/21 10:19:35;;;;;;;6.13;3.75;;;;;;;22.08;60.28;97082.14;129457;1095;24352;-91
2021/07/21 10:22:15;;;;;;;7.45;3.80;;;;;;;22.24;59.42;97085.73;129271;1097;23343;-91
2021/07/21 10:24:47;;;;;;;8.63;3.90;;;;;;;22.46;59.19;97081.70;127610;1096;24156;-96
2021/07/21 10:27:20;;;;;;;5.25;3.35;;;;;;;22.55;58.07;97086.97;127645;1096;25565;-90
2021/07/21 10:29:53;;;;;;;5.83;3.30;;;;;;;22.48;55.06;97080.22;127575;1095;31634;-91
2021/07/21 10:32:27;;;;;;;6.75;3.60;;;;;;;22.20;55.71;97091.00;127685;1096;22911;-91
2021/07/21 10:34:59;;;;;;;6.35;3.45;;;;;;;22.14;55.88;97089.67;127616;1096;22838;-90
2021/07/21 10:37:30;;;;;;;7.03;3.68;;;;;;;22.17;57.14;97082.80;127582;1096;22933;-90
2021/07/21 10:40:05;;;;;;;6.30;4.00;;;;;;;22.25;57.94;97090.00;127566;1095;22824;-90
2021/07/21 10:42:37;;;;;;;8.55;3.83;;;;;;;22.34;56.07;97098.73;127569;1096;26697;-92
2021/07/21 10:45:23;;;;;;;4.88;3.43;;;;;;;22.23;55.63;97084.91;127606;1097;23170;-91
2021/07/21 10:48:00;;;;;;;5.63;3.60;;;;;;;22.09;54.25;97098.00;127628;1096;22957;-93
2021/07/21 10:50:42;;;;;;;5.45;3.80;;;;;;;21.93;54.85;97084.38;127498;1096;33023;-93
2021/07/21 10:59:25;;;;;;;5.77;3.37;;;;;;;21.88;53.70;97081.14;127584;1097;22858;-92
2021/07/21 11:02:02;;;;;;;5.35;3.58;;;;;;;21.94;55.15;97080.55;127564;1097;25606;-88
2021/07/21 11:04:47;;;;;;;5.53;3.80;;;;;;;22.27;56.07;97079.63;127442;1096;22821;-93
2021/07/21 11:07:52;;;;;;;5.95;4.20;;;;;;;22.49;57.22;97079.09;127469;1097;22861;-94
2021/07/21 11:10:41;;;;;;;5.33;3.20;;;;;;;22.52;53.34;97077.61;127596;1096;23544;-93
2021/07/21 11:13:14;;;;;;;5.68;3.38;;;;;;;22.31;53.19;97090.53;127584;1097;25370;-92
2021/07/21 11:15:51;;;;;;;5.40;3.60;;;;;;;22.35;53.84;97094.11;127512;1096;26295;-92
2021/07/21 11:18:44;;;;;;;5.25;3.43;;;;;;;22.27;54.07;97089.66;127599;1095;24750;-92
2021/07/21 11:21:20;;;;;;;6.45;4.05;;;;;;;22.12;54.05;97099.25;127550;1097;28183;-92
2021/07/21 11:24:02;;;;;;;6.40;3.63;;;;;;;21.73;51.58;97095.33;127641;1095;27747;-91
2021/07/21 11:26:45;;;;;;;6.73;3.78;;;;;;;21.42;54.20;97088.59;127574;1096;28460;-92
2021/07/21 11:29:46;;;;;;;5.00;3.18;;;;;;;21.40;55.24;97100.84;127556;1097;26365;-92
2021/07/21 11:32:35;;;;;;;;;;;;;;;21.37;54.90;97104.98;127601;1096;22812;-93
2021/07/21 11:35:41;;;;;;;8.55;3.70;;;;;;;21.15;54.98;97094.59;127582;1096;23553;-92
2021/07/21 11:38:43;;;;;;;7.18;3.90;;;;;;;21.08;55.59;97102.43;127598;1097;25116;-92
2021/07/21 11:41:54;;;;;;;5.25;3.58;;;;;;;20.85;55.35;97096.66;127623;1096;26258;-91
2021/07/21 11:44:28;;;;;;;5.93;3.65;;;;;;;20.71;56.38;97100.44;127634;1096;27064;-94
2021/07/21 11:47:03;;;;;;;8.03;4.80;;;;;;;20.63;57.26;97097.81;127581;1096;25069;-92
2021/07/21 11:49:36;;;;;;;8.30;4.85;;;;;;;20.59;57.31;97097.69;127642;1096;27201;-91
2021/07/21 11:52:09;;;;;;;5.85;4.25;;;;;;;20.58;58.40;97104.20;127548;1095;79957;-93
2021/07/21 11:54:41;;;;;;;9.30;4.83;;;;;;;20.56;58.36;97095.66;127627;1096;26295;-93
2021/07/21 11:57:13;;;;;;;6.73;4.30;;;;;;;20.60;58.27;97104.65;127590;1096;24408;-93
2021/07/21 11:59:46;;;;;;;9.03;4.80;;;;;;;20.55;58.80;97098.66;127705;1095;23754;-94
2021/07/21 12:02:19;;;;;;;9.97;5.00;;;;;;;20.60;58.43;97110.03;127695;1096;23556;-94
2021/07/21 12:04:52;;;;;;;8.85;4.88;;;;;;;20.54;58.37;97103.26;127631;1096;26388;-93
2021/07/21 12:07:32;;;;;;;7.28;4.95;;;;;;;20.56;59.05;97109.13;127626;1095;27376;-94